KPHN/PHN METAR and TAF weather

Enter ICAO airport designator
Station Type Date Time Source
KPHN METAR 2020/09/22 22:18 UTC NOAA

KPHN 222218Z AUTO 00000KT 10SM CLR 19/09 A3008 RMK AO2


Station Type Date Time Source
KPHN Decoded METAR 2020/09/22 22:18 UTC NOAA

St. Clair County International, MI, United States (KPHN) 42-55N 082-32W
Sep 22, 2020 - 06:18 PM EDT / 2020.09.22 2218 UTC
Wind: Calm:0
Visibility: 10 mile(s):0
Sky conditions: clear
Temperature: 66 F (19 C)
Dew Point: 48 F (9 C)
Relative Humidity: 52%
Pressure (altimeter): 30.08 in. Hg (1018 hPa)
ob: KPHN 222218Z AUTO 00000KT 10SM CLR 19/09 A3008 RMK AO2
cycle: 22

Station Type Date Time Source
KPHN TAF UTC NOAA

Error!

Example: see airport list